Koji Haraguchi

Recruteur - Vissel Kobe
4 Déc 2028
Lundi
Processus

Personnalité

Adaptabilité (15) Ambition (6) Controverse (9) Loyauté (1) Pression (13) Professionnalisme (11) Sportivité (2) Tempérament (19)

Profil

Style d'entraînement Démocratique
Diplôme Continental C
Détermination 11
Gestion des joueurs 10
Motivation 5
Discipline 10
Satisfaction professionnelle
100%
Fatigue
0%
Rôle Recruteur
Salaire 38.1K p/s
Contrat 14.03.2030

Performance

Comportement Bon
Efficacité de l'entraînement
58%
Développement des joueurs
35%
Prévention des blessures
25%
Mise en place tactique
65%

Événements récents

A évalué un joueur 7j
A participé à une réunion de recrutement 7j
A recommandé une cible de transfert 7j
A évalué un joueur 7j
A évalué un joueur 7j
A évalué un joueur 14j
A évalué un joueur 14j
A évalué un joueur 14j

Suivi en cours

70
Joueur Club Statut Capacité Confiance Observé Dernière observation Dernier vote
Jorge Salinas Racing Santander Actif 129 / 139 40% 6 23.11.2028 -
Lucas Jetten MC Alger Actif 117 / 129 40% 1 23.11.2028 -
Benito Paklayan Alvarado Actif 86 / 89 40% 1 21.11.2028 -
Louis Page Leicester City Actif 129 / 136 40% 1 21.11.2028 -
Celías Ingenthron Platense Actif 121 / 124 40% 2 20.11.2028 -
Matías Magdaleno Estudiantes Actif 101 / 113 40% 1 19.11.2028 -
Calvin Diakite Chesterfield Actif 100 / 96 40% 1 19.11.2028 -
Giovanni Leoni Lincoln City Actif 160 / 158 40% 3 18.11.2028 -
Salvador Blopá Wolverhampton Actif 133 / 124 40% 1 18.11.2028 -
Ianis Marin Pandurii Actif 88 / 109 40% 2 17.11.2028 -
Azizbek To'lqinbekov Bunyodkor Actif 110 / 110 40% 1 17.11.2028 -
Buba Sangaré Elche Actif 150 / 139 40% 2 16.11.2028 -
Davinchi Getafe Actif 118 / 130 40% 1 16.11.2028 -
Musa Danjuma Umraniyespor Actif 113 / 105 40% 4 15.11.2028 -
Mateo Caballero Defensor Sporting Actif 92 / 110 40% 1 15.11.2028 -
Rene Hrvatin Istra 1961 Actif 106 / 109 40% 1 12.11.2028 -
Matys Donavin AC Ajaccio Actif 108 / 114 40% 1 12.11.2028 -
Gideon Manaseh Ikorodu City Actif 106 / 98 40% 1 11.11.2028 -
Luis Otávio Orlando City Actif 112 / 129 40% 1 11.11.2028 -
Rafael Mota Sporting CP Actif 134 / 131 40% 1 09.11.2028 -
Roberto Medina La Equidad Actif 105 / 106 40% 1 09.11.2028 -
Tyler Fletcher Rotherham United Actif 131 / 122 40% 3 08.11.2028 -
Olivier Mambwa Young Boys Actif 121 / 120 40% 1 08.11.2028 -
Diego Cheuquepal Racing Actif 103 / 105 40% 1 07.11.2028 -
José Neto Benfica Actif 120 / 124 40% 1 07.11.2028 -
Andrey Ivlev Nizhniy Novgorod Actif 109 / 124 40% 4 02.10.2028 -
Jan Cedilnik Chikhura Actif 86 / 94 40% 1 02.10.2028 -
Tiago Gordillo San Miguel Actif 89 / 95 40% 1 04.09.2028 -
Muminhon Bahodirxonov Neftchi Actif 99 / 100 40% 1 04.09.2028 -
Kwesi Sorotu Badori Berekum Chelsea Actif 105 / 104 40% 1 08.08.2028 -
Daniel Banjaqui Benfica Actif 130 / 131 40% 1 08.08.2028 -
Masato Kojima Omiya Ardija Actif 124 / 113 62% 1 31.07.2028 Approuver
Isaac Monnier FC Lorient Actif 112 / 100 40% 1 21.07.2028 -
Francisco Machis Llaneros Actif 90 / 92 40% 1 21.07.2028 -
Lamine Bèye Portimonense Actif 113 / 127 40% 1 03.07.2028 -
Jan Bürger Northampton Town Actif 118 / 126 40% 3 02.07.2028 -
Abubakar Adams Aduana Stars Actif 100 / 84 40% 2 01.07.2028 -
Alessio Insignito Spezia Actif 102 / 114 40% 1 01.07.2028 -
Riquelme Thompson-Jones Accrington Stanley Actif 122 / 116 40% 3 30.06.2028 -
Lucas Camejo River Plate Actif 81 / 87 40% 1 29.06.2028 -
Bernardo Lima Porto Actif 119 / 118 40% 1 28.06.2028 -
Makar Vysochenko Spartak Moscow Actif 92 / 102 40% 2 24.06.2028 -
Nour Ashraf ENPPI Actif 87 / 95 40% 3 22.06.2028 -
Martim Cunha Porto Actif 97 / 114 40% 3 19.06.2028 -
David Damboama El-Kanemi Warriors Actif 80 / 90 40% 1 19.06.2028 -
Sebastian Rodriguez Houston Dynamo Actif 117 / 126 40% 1 17.06.2028 -
Miguel Figueiredo Benfica Actif 119 / 133 40% 2 15.06.2028 -
Denis Grigorjev Arsenal Tula Actif 78 / 97 40% 2 14.06.2028 -
Kirill Kistenev Botev Vratsa Actif 86 / 98 40% 1 13.06.2028 -
Thijs Kraaijeveld USM Alger Actif 128 / 131 40% 1 12.06.2028 -
Josh Nichols Oldham Athletic Actif 111 / 135 40% 6 11.06.2028 -
Tobías Ramírez River Plate Actif 129 / 129 40% 2 10.06.2028 -
Kiani Inge Groningen Actif 100 / 123 40% 2 09.06.2028 -
Federico Matarán Giana Erminio Actif 88 / 106 40% 2 03.06.2028 -
Noah Markmann Esbjerg Actif 117 / 123 40% 1 30.05.2028 -
Malte Heyde Esbjerg Actif 121 / 124 40% 3 29.05.2028 -
Kamaldeen Atiemo Wa All Stars Actif 99 / 108 40% 2 27.05.2028 -
Andrea Cogoni Cosenza Actif 105 / 121 40% 1 26.05.2028 -
Pape Diong Westerlo Actif 132 / 126 40% 1 25.05.2028 -
Trey Nyoni Rotherham United Actif 125 / 151 40% 2 21.05.2028 -
Andrija Bulatović Chamois Niortais Actif 127 / 130 40% 4 16.05.2028 -
Jorthy Mokio ADO Den Haag Actif 131 / 142 40% 4 11.05.2028 -
Bence Szakos Aris Actif 86 / 106 40% 1 11.05.2028 -
Christos Mouzakitis Hull City Actif 151 / 139 40% 2 29.04.2028 -
Dmytro Strilchuk Podillia Actif 89 / 94 40% 1 27.04.2028 -
Augusto Bando Ascoli Actif 117 / 123 40% 2 22.04.2028 -
Noahkai Banks FC Augsburg Actif 130 / 142 40% 1 18.04.2028 -
Thato Sibiya Orlando Pirates Actif 131 / 121 40% 1 17.04.2028 -
Matvey Bardachev Zenit Actif 120 / 111 40% 1 03.04.2028 -
Gustavo Albarracín Alavés Actif 132 / 121 40% 1 03.04.2028 -